Nearby METAR Reports

 

KSJC - San Jose, California, USA
Distance from station: NE 9mi, 14km
Updated: Wed, 15-Aug-2018 1:53pm CDT
Partly cloudy
Partly cloudy
 Wind from calm
Wind: Calm
Temperature: 70°F , 21°C
Dew Point: 55°F , 13°C
Humidity: 60%
Barometer: 29.98 inHg , 1015.2 hPa
Clouds: Partly cloudy
Visibility: 10 miles , 16 km
Cloud details: Few Clouds 900 ft
Few Clouds 2200 ft
Partly cloudy 3000 ft
2018/08/15 18:53 KSJC 151853Z 00000KT 10SM FEW009 FEW022 SCT030 21/13 A2998 RMK AO2 SLP150 FU SCT030 T02060133
KNUQ - Moffett Nas/Mtn, California, USA
Distance from station: N 9mi, 14km
Updated: Wed, 15-Aug-2018 1:56pm CDT
Partly cloudy
Partly cloudy
 Wind from N
Wind: N 10 mph , 17 km/h, Gust: 21 mph , 33 km/h
Temperature: 70°F , 21°C
Dew Point: 57°F , 14°C
Humidity: 64%
Barometer: 29.98 inHg , 1015.2 hPa
Clouds: Partly cloudy
Visibility: 10 miles , 16 km
Cloud details: Partly cloudy 2300 ft
2018/08/15 18:56 KNUQ 151856Z 01009G18KT 10SM SCT023 21/14 A2998 RMK AO2 SLP155 T02110139
 
KPAO - Palo Alto, California, USA
Distance from station: NNW 14mi, 23km
Updated: Wed, 15-Aug-2018 12:47pm CDT
NOT Current
Mostly cloudy
Mostly cloudy
 Wind from varies
Wind: varies 5 mph , 7 km/h
Temperature: 66°F , 19°C
Dew Point: 57°F , 14°C
Humidity: 73%
Barometer: 30.00 inHg , 1015.9 hPa
Clouds: Mostly cloudy
Visibility: 10 miles , 16 km
Cloud details: Mostly cloudy 1800 ft
2018/08/15 17:47 KPAO 151747Z VRB04KT 10SM BKN018 19/14 A3000
KRHV - San Jose/Reid, California, USA
Distance from station: ENE 12mi, 19km
Updated: Wed, 15-Aug-2018 1:55pm CDT
Clear
Clear
 Wind from NNW
Wind: NNW 9 mph , 15 km/h
Temperature: 72°F , 22°C
Dew Point: 57°F , 14°C
Humidity: 61%
Barometer: 29.96 inHg , 1014.6 hPa
Clouds: Clear
Visibility: 10 miles , 16 km
2018/08/15 18:55 KRHV 151855Z 33008KT 10SM SKC 22/14 A2996
 
KOAK - Oakland, California, USA
Distance from station: NNW 31mi, 50km
Updated: Wed, 15-Aug-2018 1:53pm CDT
Overcast
Overcast
 Wind from W
Wind: W 15 mph , 24 km/h
Temperature: 66°F , 19°C
Dew Point: 55°F , 13°C
Humidity: 68%
Barometer: 29.99 inHg , 1015.6 hPa
Clouds: Overcast
Visibility: 10 miles , 16 km
Cloud details: Overcast 2100 ft
2018/08/15 18:53 KOAK 151853Z 27013KT 10SM OVC021 19/13 A2999 RMK AO2 SLP153 T01890133
KSQL - San Carlos Airpo, California, USA
Distance from station: NW 21mi, 34km
Updated: Wed, 15-Aug-2018 9:00am CDT
NOT Current
Overcast
Overcast
 Wind from W
Wind: W 5 mph , 7 km/h
Temperature: 63°F , 17°C
Dew Point: 55°F , 13°C
Humidity: 77%
Barometer: 29.96 inHg , 1014.6 hPa
Clouds: Overcast
Visibility: 10 miles , 16 km
Cloud details: Overcast 1500 ft
2018/08/15 14:00 KSQL 151400Z AUTO 27004KT 10SM OVC015 17/13 A2996 RMK AO2
 
KSFO - San Francisco, California, USA
Distance from station: NW 30mi, 49km
Updated: Wed, 15-Aug-2018 1:56pm CDT
Overcast
Overcast
 Wind from W
Wind: W 12 mph , 19 km/h
Temperature: 64°F , 18°C
Dew Point: 55°F , 13°C
Humidity: 73%
Barometer: 29.98 inHg , 1015.2 hPa
Clouds: Overcast
Visibility: 10 miles , 16 km
Cloud details: Few Clouds 800 ft
Overcast 1900 ft
2018/08/15 18:56 KSFO 151856Z 27010KT 10SM FEW008 OVC019 18/13 A2998 RMK AO2 SLP153 T01830128
KE16 - San Martin, California, USA
Distance from station: ESE 27mi, 43km
Updated: Sun, 05-Aug-2018 5:05am CDT
NOT Current
Clear
Clear
 Wind from calm
Wind: Calm
Temperature: 61°F , 16°C
Dew Point: 48°F , 9°C
Humidity: 63%
Barometer: 29.93 inHg , 1013.5 hPa
Clouds: Clear
Visibility: 10 miles , 16 km
2018/08/05 10:05 KE16 051005Z AUTO 00000KT 10SM CLR 16/09 A2993 RMK AO2
 
KWVI - Watsonville, California, USA
Distance from station: SSE 27mi, 44km
Updated: Wed, 15-Aug-2018 1:53pm CDT
Clear
Clear
 Wind from SSW
Wind: SSW 7 mph , 11 km/h
Temperature: 70°F , 21°C
Dew Point: 57°F , 14°C
Humidity: 64%
Barometer: 29.97 inHg , 1014.9 hPa
Clouds: Clear
Visibility: 10 miles , 16 km
2018/08/15 18:53 KWVI 151853Z AUTO 21006KT 10SM CLR 21/14 A2997 RMK AO2 SLP148 T02110139
KHAF - Half Moon Bay, California, USA
Distance from station: WNW 31mi, 50km
Updated: Wed, 15-Aug-2018 2:20pm CDT
Mist, Overcast
Mist, Overcast
 Wind from W
Wind: W 7 mph , 11 km/h
Temperature: 63°F , 17°C
Dew Point: 57°F , 14°C
Humidity: 83%
Barometer: 30.00 inHg , 1015.9 hPa
Summary: Mist
Clouds: Overcast
Visibility: 6 miles , 10 km
Cloud details: Overcast 1900 ft
2018/08/15 19:20 KHAF 151920Z AUTO 27006KT 6SM BR OVC019 17/14 A3000 RMK AO2
 
KHWD - Hayward, California, USA
Distance from station: N 28mi, 44km
Updated: Wed, 15-Aug-2018 1:54pm CDT
Overcast
Overcast
 Wind from W
Wind: W 9 mph , 15 km/h
Temperature: 66°F , 19°C
Dew Point: 55°F , 13°C
Humidity: 68%
Barometer: 29.99 inHg , 1015.6 hPa
Clouds: Overcast
Visibility: 10 miles , 16 km
Cloud details: Overcast 1800 ft
2018/08/15 18:54 KHWD 151854Z 27008KT 10SM OVC018 19/13 A2999 RMK AO2 SLP163 T01940133
KLVK - Livermore, California, USA
Distance from station: NNE 31mi, 51km
Updated: Wed, 15-Aug-2018 1:53pm CDT
Clear
Clear
 Wind from WNW
Wind: WNW 12 mph , 19 km/h
Temperature: 70°F , 21°C
Dew Point: 55°F , 13°C
Humidity: 60%
Barometer: 29.96 inHg , 1014.6 hPa
Clouds: Clear
Visibility: 9 miles , 14 km
2018/08/15 18:53 KLVK 151853Z 29010KT 9SM CLR 21/13 A2996 RMK AO2 SLP143 T02110133